Time;durP1;ratioP1;P1;durP2;ratioP2;P2;SDS_P1;SDS_P2;PMS_P1;PMS_P2;Temp;Humidity;BMP_temperature;BMP_pressure;BME280_temperature;BME280_humidity;BME280_pressure;Samples;Min_cycle;Max_cycle;Signal;HPM_P1;HPM_P2
2023/04/27 04:04:40;;;;;;;1.45;1.45;;;7.50;99.90;;;;;;5732501;23;20217;-74
2023/04/27 04:07:06;;;;;;;3.03;2.13;;;7.50;99.90;;;;;;4954736;29;20189;-73
2023/04/27 04:09:32;;;;;;;2.10;1.90;;;7.50;99.90;;;;;;4955672;29;20820;-73
2023/04/27 04:11:57;;;;;;;4.20;1.77;;;7.50;99.90;;;;;;4955377;29;20173;-74
2023/04/27 04:14:23;;;;;;;1.70;1.60;;;7.60;99.90;;;;;;4954739;28;20678;-74
2023/04/27 04:16:48;;;;;;;1.87;1.77;;;7.60;99.90;;;;;;4954913;29;20184;-72
2023/04/27 04:19:14;;;;;;;2.27;2.13;;;7.60;99.90;;;;;;4936966;29;20183;-73
2023/04/27 04:21:40;;;;;;;1.67;1.57;;;7.60;99.90;;;;;;4937071;29;20259;-73
2023/04/27 04:24:06;;;;;;;3.27;1.77;;;7.60;99.90;;;;;;4954495;29;20192;-72
2023/04/27 04:26:32;;;;;;;2.42;2.17;;;7.60;99.90;;;;;;4954618;29;20226;-74
2023/04/27 04:28:57;;;;;;;1.30;1.20;;;7.60;99.90;;;;;;4937714;29;20177;-73
2023/04/27 04:31:23;;;;;;;1.47;1.37;;;7.50;99.90;;;;;;4955057;29;20220;-73
2023/04/27 04:33:49;;;;;;;1.03;1.03;;;7.60;99.90;;;;;;4953904;29;20705;-73
2023/04/27 04:36:14;;;;;;;1.87;1.30;;;7.60;99.90;;;;;;4954403;29;20196;-74
2023/04/27 04:38:40;;;;;;;2.27;2.07;;;7.60;99.90;;;;;;4937800;29;20267;-74
2023/04/27 04:41:06;;;;;;;1.50;1.40;;;7.60;99.90;;;;;;4954991;29;20200;-74
2023/04/27 04:43:31;;;;;;;1.20;1.17;;;7.60;99.90;;;;;;4955038;29;20535;-73
2023/04/27 04:45:57;;;;;;;1.70;1.60;;;7.70;99.90;;;;;;4954595;29;20697;-73
2023/04/27 04:48:23;;;;;;;2.57;2.37;;;7.70;99.90;;;;;;4954273;29;20534;-72
2023/04/27 04:50:48;;;;;;;2.20;2.10;;;7.80;99.90;;;;;;4937588;29;20173;-74
2023/04/27 04:53:14;;;;;;;2.93;2.33;;;7.80;99.90;;;;;;4954480;29;20176;-73
2023/04/27 04:55:39;;;;;;;3.70;1.60;;;7.90;99.90;;;;;;4954229;28;20212;-71
2023/04/27 04:58:05;;;;;;;1.97;1.60;;;7.90;99.90;;;;;;4954901;29;20176;-72
2023/04/27 05:00:31;;;;;;;1.60;1.20;;;7.90;99.90;;;;;;4954480;29;20704;-74
2023/04/27 05:02:57;;;;;;;2.17;2.07;;;8.00;99.90;;;;;;4956253;28;20200;-75
2023/04/27 05:05:22;;;;;;;2.40;2.00;;;8.00;99.90;;;;;;4956541;29;20195;-75
2023/04/27 05:07:48;;;;;;;8.10;2.53;;;8.00;99.90;;;;;;4958355;29;20722;-73
2023/04/27 05:10:13;;;;;;;1.67;1.53;;;8.10;99.90;;;;;;4958133;29;20171;-74
2023/04/27 05:12:39;;;;;;;1.93;1.60;;;8.10;99.90;;;;;;4958466;29;20649;-75
2023/04/27 05:15:05;;;;;;;1.43;1.33;;;8.10;99.90;;;;;;4939655;29;20196;-73
2023/04/27 05:17:30;;;;;;;1.58;1.48;;;8.10;99.90;;;;;;4957956;29;20180;-74
2023/04/27 05:19:57;;;;;;;2.07;2.00;;;8.10;99.90;;;;;;4940847;29;20690;-73
2023/04/27 05:22:22;;;;;;;2.03;1.92;;;8.20;99.90;;;;;;4958062;29;20562;-72
2023/04/27 05:24:48;;;;;;;1.30;1.30;;;8.30;99.90;;;;;;4957451;29;20195;-73
2023/04/27 05:27:14;;;;;;;1.80;1.53;;;8.40;99.90;;;;;;4957920;29;20177;-71
2023/04/27 05:29:39;;;;;;;2.37;2.17;;;8.50;99.90;;;;;;4957532;29;20574;-67
2023/04/27 05:32:05;;;;;;;2.57;1.90;;;8.50;99.90;;;;;;4957688;29;20201;-68
2023/04/27 05:34:31;;;;;;;10.03;3.30;;;8.60;99.90;;;;;;4957300;29;20436;-71
2023/04/27 05:36:57;;;;;;;2.73;2.50;;;8.60;99.90;;;;;;4935318;29;20189;-73
2023/04/27 05:39:22;;;;;;;1.70;1.53;;;8.70;99.90;;;;;;4957766;29;20570;-70
2023/04/27 05:41:48;;;;;;;1.90;1.80;;;8.80;99.90;;;;;;4940343;29;20258;-72
2023/04/27 05:44:14;;;;;;;1.73;1.67;;;8.80;99.90;;;;;;4956766;28;20678;-69
2023/04/27 05:46:39;;;;;;;2.70;2.17;;;9.00;99.90;;;;;;4957229;29;20184;-69
2023/04/27 05:49:05;;;;;;;2.20;2.00;;;9.10;99.90;;;;;;4957618;29;20592;-67
2023/04/27 05:51:32;;;;;;;2.00;1.90;;;9.20;99.90;;;;;;4957248;29;20184;-69
2023/04/27 05:53:58;;;;;;;3.08;1.98;;;9.30;99.90;;;;;;4956729;29;20192;-70
2023/04/27 05:56:25;;;;;;;2.67;2.58;;;9.40;99.90;;;;;;4957275;29;20173;-69
2023/04/27 05:58:50;;;;;;;1.83;1.70;;;9.50;99.90;;;;;;4957176;29;20169;-68
2023/04/27 06:01:16;;;;;;;2.77;2.67;;;9.50;99.90;;;;;;4956870;29;20197;-68
2023/04/27 06:03:41;;;;;;;2.33;1.93;;;9.60;99.90;;;;;;4956461;29;20195;-69
2023/04/27 06:06:07;;;;;;;2.80;2.23;;;9.60;99.90;;;;;;4956929;29;20236;-69
2023/04/27 06:08:36;;;;;;;2.60;2.40;;;9.80;99.90;;;;;;4957223;29;20523;-68
2023/04/27 06:11:02;;;;;;;6.32;2.60;;;9.90;99.90;;;;;;4957045;29;20512;-70
2023/04/27 06:13:27;;;;;;;1.93;1.83;;;10.00;99.90;;;;;;4956246;28;20181;-71
2023/04/27 06:15:53;;;;;;;2.10;2.00;;;10.10;99.90;;;;;;4957011;29;20540;-69
2023/04/27 06:18:19;;;;;;;1.60;1.50;;;10.30;99.90;;;;;;4957319;29;20217;-70
2023/04/27 06:20:45;;;;;;;3.03;2.67;;;10.50;99.90;;;;;;4956914;29;20200;-70
2023/04/27 06:23:11;;;;;;;3.17;2.70;;;10.70;99.90;;;;;;4956440;29;20167;-69
2023/04/27 06:25:38;;;;;;;3.87;3.57;;;10.90;99.90;;;;;;4956747;29;20999;-69
2023/04/27 06:28:04;;;;;;;2.67;2.50;;;11.10;99.90;;;;;;4956360;29;20173;-71
2023/04/27 06:30:30;;;;;;;3.07;2.77;;;11.20;99.90;;;;;;4956091;29;20426;-69
2023/04/27 06:32:56;;;;;;;2.47;2.27;;;11.30;99.90;;;;;;4956310;29;20431;-69
2023/04/27 06:35:21;;;;;;;2.90;2.13;;;11.40;99.90;;;;;;4955977;29;20263;-69
2023/04/27 06:37:47;;;;;;;2.00;1.80;;;11.60;99.90;;;;;;4939132;29;20186;-70
2023/04/27 06:40:13;;;;;;;3.40;1.80;;;11.80;99.90;;;;;;4956156;29;20203;-70
2023/04/27 06:42:38;;;;;;;2.33;2.13;;;11.90;99.90;;;;;;4956284;29;20191;-69
2023/04/27 06:45:05;;;;;;;2.70;2.57;;;11.90;99.90;;;;;;4937954;29;20195;-67
2023/04/27 06:47:31;;;;;;;2.40;2.20;;;12.00;99.90;;;;;;4954610;29;20207;-68
2023/04/27 06:49:57;;;;;;;2.47;2.37;;;12.20;99.90;;;;;;4955266;29;20454;-70
2023/04/27 06:52:22;;;;;;;2.00;1.83;;;12.30;99.90;;;;;;4938296;29;20180;-70
2023/04/27 06:54:48;;;;;;;1.90;1.80;;;12.50;99.90;;;;;;4955242;29;20255;-68
2023/04/27 06:57:14;;;;;;;1.83;1.73;;;12.70;99.90;;;;;;4955563;29;20188;-70
2023/04/27 06:59:39;;;;;;;2.40;2.00;;;12.80;99.90;;;;;;4955759;29;20226;-69
2023/04/27 07:02:06;;;;;;;2.37;2.27;;;13.00;99.90;;;;;;4956041;29;20206;-69
2023/04/27 07:04:32;;;;;;;2.10;1.90;;;13.30;99.80;;;;;;4955675;29;20197;-69
2023/04/27 07:06:57;;;;;;;2.47;2.27;;;13.40;98.90;;;;;;4955648;28;20561;-68
2023/04/27 07:09:23;;;;;;;2.10;1.90;;;13.60;98.40;;;;;;4956040;29;20270;-68
2023/04/27 07:11:48;;;;;;;2.43;2.23;;;13.70;98.40;;;;;;4955791;29;20169;-69
2023/04/27 07:14:14;;;;;;;2.23;2.03;;;13.80;98.60;;;;;;4955544;29;20193;-68
2023/04/27 07:16:40;;;;;;;2.37;2.17;;;14.00;97.80;;;;;;4955420;29;20279;-67
2023/04/27 07:19:06;;;;;;;2.73;2.53;;;14.30;97.10;;;;;;4955319;29;20424;-70
2023/04/27 07:21:32;;;;;;;1.93;1.83;;;14.40;97.00;;;;;;4955729;29;20600;-70
2023/04/27 07:23:57;;;;;;;2.60;2.40;;;14.50;97.10;;;;;;4955311;29;20621;-72
2023/04/27 07:26:23;;;;;;;2.27;2.07;;;14.70;96.40;;;;;;4955009;28;20437;-71
2023/04/27 07:28:49;;;;;;;5.47;3.90;;;14.90;95.70;;;;;;4955267;29;20176;-69
2023/04/27 07:31:15;;;;;;;4.67;2.90;;;14.80;95.80;;;;;;4955212;29;20175;-70
2023/04/27 07:33:41;;;;;;;3.20;2.70;;;14.90;96.10;;;;;;4937538;29;20433;-68
2023/04/27 07:36:08;;;;;;;4.50;2.33;;;15.10;95.90;;;;;;4955019;29;20435;-70
2023/04/27 07:38:34;;;;;;;2.70;2.50;;;15.50;95.10;;;;;;4955252;29;20177;-71
2023/04/27 07:41:00;;;;;;;2.80;2.60;;;15.70;94.80;;;;;;4955384;29;20461;-70
2023/04/27 07:43:26;;;;;;;2.20;2.10;;;16.00;94.60;;;;;;4937951;29;20219;-70
2023/04/27 07:45:53;;;;;;;3.23;2.50;;;16.70;94.50;;;;;;4938194;29;20451;-68
2023/04/27 07:48:19;;;;;;;2.50;2.30;;;18.10;93.30;;;;;;4955237;29;20383;-69
2023/04/27 07:50:45;;;;;;;2.60;2.40;;;19.40;90.20;;;;;;4955429;29;20432;-70
2023/04/27 07:53:11;;;;;;;3.17;2.97;;;20.70;86.50;;;;;;4954885;29;20184;-69
2023/04/27 07:55:37;;;;;;;2.60;2.40;;;21.50;81.10;;;;;;4955242;29;20464;-70
2023/04/27 07:58:03;;;;;;;2.17;2.07;;;21.90;77.60;;;;;;4955349;29;20184;-70
2023/04/27 08:00:28;;;;;;;3.10;2.90;;;22.10;77.50;;;;;;4938422;29;20460;-70
2023/04/27 08:02:54;;;;;;;2.63;2.43;;;22.50;75.90;;;;;;4955363;29;20389;-70
2023/04/27 08:05:20;;;;;;;3.00;2.80;;;22.70;76.10;;;;;;4954718;28;20200;-70
2023/04/27 08:07:46;;;;;;;4.40;2.50;;;22.90;74.10;;;;;;4955180;29;20184;-71
2023/04/27 08:10:13;;;;;;;2.90;2.67;;;22.80;72.90;;;;;;4955234;29;20184;-69
2023/04/27 08:12:39;;;;;;;2.37;2.23;;;22.70;72.50;;;;;;4955346;29;20181;-69
2023/04/27 08:15:06;;;;;;;2.43;2.23;;;23.10;72.10;;;;;;4937635;29;20419;-70
2023/04/27 08:17:32;;;;;;;2.73;2.53;;;23.80;70.50;;;;;;4938121;29;20516;-71
2023/04/27 08:19:57;;;;;;;2.97;2.43;;;24.70;68.70;;;;;;4955468;29;20525;-71
2023/04/27 08:22:23;;;;;;;3.10;2.90;;;25.40;67.60;;;;;;4954968;29;20453;-71
2023/04/27 08:24:50;;;;;;;3.20;2.20;;;25.60;64.50;;;;;;4954235;29;20311;-71
2023/04/27 08:27:16;;;;;;;2.70;2.50;;;25.70;64.30;;;;;;4955046;29;20528;-71
2023/04/27 08:29:46;;;;;;;2.63;2.43;;;25.90;65.50;;;;;;4955166;29;20408;-71
2023/04/27 08:32:13;;;;;;;2.60;2.40;;;26.10;64.10;;;;;;4955233;29;20210;-71
2023/04/27 08:34:40;;;;;;;2.57;2.37;;;26.10;61.70;;;;;;4954664;29;20432;-70
2023/04/27 08:37:06;;;;;;;3.27;2.83;;;26.40;61.90;;;;;;4939469;29;20399;-71
2023/04/27 08:39:31;;;;;;;2.60;2.40;;;26.50;59.60;;;;;;4959120;29;20419;-71
2023/04/27 08:41:57;;;;;;;3.20;3.00;;;26.80;59.40;;;;;;4958725;29;20223;-70
2023/04/27 08:44:23;;;;;;;2.30;2.10;;;26.90;58.40;;;;;;4958371;29;20200;-70
2023/04/27 08:46:50;;;;;;;2.03;1.93;;;26.90;57.70;;;;;;4958612;29;20264;-69
2023/04/27 08:49:15;;;;;;;2.70;2.50;;;27.30;56.10;;;;;;4958829;29;20240;-70
2023/04/27 08:51:41;;;;;;;3.70;2.40;;;27.70;54.00;;;;;;4958738;29;20428;-70
2023/04/27 08:54:07;;;;;;;2.63;2.43;;;27.90;54.10;;;;;;4940946;29;20223;-70
2023/04/27 08:56:33;;;;;;;2.70;2.20;;;27.80;53.80;;;;;;4958657;29;20417;-70
2023/04/27 08:59:03;;;;;;;4.80;4.30;;;27.50;53.30;;;;;;4958587;29;20207;-71
2023/04/27 09:01:29;;;;;;;2.53;2.40;;;27.50;54.10;;;;;;4941012;29;20232;-71
2023/04/27 09:03:56;;;;;;;2.30;2.10;;;27.90;53.90;;;;;;4941161;29;20391;-71
2023/04/27 09:06:33;;;;;;;2.03;1.93;;;28.00;54.80;;;;;;4941100;29;20468;-71
2023/04/27 09:09:00;;;;;;;2.30;2.20;;;27.70;54.00;;;;;;4941145;29;20469;-70
2023/04/27 09:11:34;;;;;;;2.10;2.00;;;27.40;54.30;;;;;;4958311;29;20432;-70
2023/04/27 09:14:02;;;;;;;2.47;2.27;;;27.30;54.10;;;;;;4940229;29;20423;-72
2023/04/27 09:16:31;;;;;;;2.70;2.60;;;27.60;54.10;;;;;;4957704;29;20428;-71
2023/04/27 09:18:58;;;;;;;2.17;2.07;;;27.50;53.00;;;;;;4941539;29;20417;-71
2023/04/27 09:21:33;;;;;;;2.50;2.30;;;27.40;53.70;;;;;;4940935;29;20997;-71
2023/04/27 09:24:09;;;;;;;2.20;2.10;;;27.50;53.60;;;;;;4958009;29;20998;-71
2023/04/27 09:26:36;;;;;;;2.20;2.10;;;27.40;52.60;;;;;;4958121;29;20409;-71
2023/04/27 09:29:02;;;;;;;2.57;2.37;;;27.50;52.90;;;;;;4957742;29;20392;-71
2023/04/27 09:31:31;;;;;;;2.40;2.20;;;27.60;52.80;;;;;;4940667;29;20738;-71
2023/04/27 09:33:57;;;;;;;1.97;1.87;;;27.80;51.50;;;;;;4957558;29;20267;-71
2023/04/27 09:36:24;;;;;;;2.43;2.23;;;27.90;51.80;;;;;;4940813;29;20530;-70
2023/04/27 09:38:51;;;;;;;1.80;1.70;;;28.20;51.40;;;;;;4957856;29;20173;-70
2023/04/27 09:41:17;;;;;;;2.10;2.00;;;28.20;51.80;;;;;;4957812;29;20539;-70
2023/04/27 09:43:44;;;;;;;2.63;2.30;;;28.10;52.20;;;;;;4939878;29;20848;-70
2023/04/27 09:46:14;;;;;;;1.87;1.43;;;28.00;52.00;;;;;;4957584;29;20201;-70
2023/04/27 09:48:40;;;;;;;2.50;2.30;;;28.00;51.40;;;;;;4957168;28;20421;-70
2023/04/27 09:51:06;;;;;;;2.40;2.17;;;28.00;51.30;;;;;;4957626;29;20425;-69
2023/04/27 09:53:37;;;;;;;2.47;2.27;;;28.00;50.60;;;;;;4940286;29;20433;-70
2023/04/27 09:56:15;;;;;;;2.10;2.00;;;27.50;51.00;;;;;;4957682;29;20432;-70
2023/04/27 09:58:53;;;;;;;2.43;2.03;;;27.50;51.90;;;;;;4957778;29;20379;-70
2023/04/27 10:01:37;;;;;;;2.03;1.93;;;27.70;52.40;;;;;;4923744;29;20496;-71
2023/04/27 10:04:27;;;;;;;2.93;2.73;;;27.70;51.60;;;;;;4956965;29;20387;-70
2023/04/27 10:07:04;;;;;;;3.00;2.80;;;27.90;51.00;;;;;;4956930;29;20466;-70
2023/04/27 10:09:47;;;;;;;2.47;2.37;;;27.90;49.10;;;;;;4957491;29;20491;-70
2023/04/27 10:12:35;;;;;;;2.40;2.20;;;27.50;50.00;;;;;;4957330;29;20421;-70
2023/04/27 10:15:14;;;;;;;2.07;1.97;;;27.40;49.90;;;;;;4924155;29;20415;-70
2023/04/27 10:17:47;;;;;;;2.23;2.10;;;27.10;52.00;;;;;;4957317;29;20439;-70
2023/04/27 10:20:15;;;;;;;3.60;3.30;;;27.10;52.60;;;;;;4957063;29;20478;-71
2023/04/27 10:22:51;;;;;;;3.60;3.30;;;27.00;51.80;;;;;;4924423;29;20425;-71
2023/04/27 10:25:25;;;;;;;1.80;1.70;;;27.00;53.30;;;;;;4956661;29;20415;-70
2023/04/27 10:27:52;;;;;;;2.53;2.33;;;26.90;53.80;;;;;;4939660;29;20914;-69
2023/04/27 10:30:19;;;;;;;2.20;2.10;;;26.80;51.90;;;;;;4956692;29;20403;-70
2023/04/27 10:32:57;;;;;;;2.63;2.43;;;26.80;53.30;;;;;;4956947;29;20422;-71
2023/04/27 10:35:41;;;;;;;2.90;2.70;;;26.70;52.50;;;;;;4956558;29;20559;-70
2023/04/27 10:38:13;;;;;;;5.00;2.60;;;26.50;53.60;;;;;;4956992;29;20426;-70
2023/04/27 10:40:39;;;;;;;3.17;2.87;;;26.20;53.90;;;;;;4939602;29;20531;-70
2023/04/27 10:43:15;;;;;;;4.20;3.80;;;26.10;53.60;;;;;;4956147;29;20402;-71
2023/04/27 10:45:42;;;;;;;3.40;3.20;;;26.30;55.10;;;;;;4937291;29;20441;-71
2023/04/27 10:48:08;;;;;;;3.43;2.70;;;26.30;54.30;;;;;;4920773;29;20393;-72
2023/04/27 10:50:34;;;;;;;2.60;2.40;;;26.30;53.30;;;;;;4936937;29;20403;-71
2023/04/27 10:53:05;;;;;;;2.20;2.10;;;25.90;52.40;;;;;;4936818;29;20387;-77
2023/04/27 10:55:31;;;;;;;3.20;2.90;;;25.90;53.50;;;;;;4953047;29;20499;-69
2023/04/27 10:57:58;;;;;;;3.10;2.80;;;25.80;54.10;;;;;;4955963;29;20428;-70
2023/04/27 11:00:27;;;;;;;3.00;2.80;;;26.10;55.00;;;;;;4955046;28;20976;-70
2023/04/27 11:02:55;;;;;;;2.60;2.40;;;26.40;54.60;;;;;;4955619;29;20801;-71
2023/04/27 11:05:24;;;;;;;2.67;2.47;;;26.80;54.40;;;;;;4938261;29;20478;-70
2023/04/27 11:07:50;;;;;;;2.40;2.27;;;26.60;52.60;;;;;;4956046;29;20403;-70
2023/04/27 11:10:18;;;;;;;3.10;2.90;;;26.00;53.80;;;;;;4956222;29;20386;-69
2023/04/27 11:12:44;;;;;;;3.30;2.97;;;24.70;53.70;;;;;;4955717;29;20400;-70
2023/04/27 11:15:11;;;;;;;3.23;2.93;;;23.90;54.40;;;;;;4955517;29;20428;-70
2023/04/27 11:17:37;;;;;;;2.93;2.63;;;23.30;55.30;;;;;;4955486;29;20450;-69
2023/04/27 11:20:09;;;;;;;8.23;7.00;;;22.80;55.20;;;;;;4956036;29;20383;-70
2023/04/27 11:22:44;;;;;;;2.50;2.30;;;22.20;57.60;;;;;;4938553;29;20484;-69
2023/04/27 11:25:10;;;;;;;2.73;2.50;;;21.60;57.90;;;;;;4955378;29;20910;-69
2023/04/27 11:27:41;;;;;;;2.40;2.20;;;21.00;58.10;;;;;;4955703;29;20404;-69
2023/04/27 11:30:18;;;;;;;2.27;2.10;;;20.60;58.90;;;;;;4938215;29;20271;-69
2023/04/27 11:32:44;;;;;;;3.33;3.13;;;20.20;60.10;;;;;;4939190;29;20769;-69
2023/04/27 11:35:10;;;;;;;1.80;1.70;;;19.90;61.30;;;;;;4955226;29;20420;-69
2023/04/27 11:37:36;;;;;;;2.60;2.47;;;19.80;63.20;;;;;;4955474;29;20169;-69
2023/04/27 11:40:03;;;;;;;2.57;2.40;;;19.60;61.20;;;;;;4955568;29;20204;-69
2023/04/27 11:42:30;;;;;;;2.37;2.27;;;19.40;60.20;;;;;;4955311;29;20200;-68
2023/04/27 11:44:57;;;;;;;2.43;2.33;;;19.10;59.90;;;;;;4954632;29;20544;-69
2023/04/27 11:47:26;;;;;;;3.90;3.03;;;19.00;60.20;;;;;;4955506;29;20830;-69
2023/04/27 11:49:54;;;;;;;2.40;2.30;;;18.90;63.70;;;;;;4955330;29;20890;-69
2023/04/27 11:52:26;;;;;;;2.90;2.50;;;18.90;61.70;;;;;;4954999;29;20512;-69
2023/04/27 11:54:55;;;;;;;2.27;2.07;;;18.90;64.60;;;;;;4954890;29;20439;-68
2023/04/27 11:57:29;;;;;;;2.60;2.40;;;18.90;66.40;;;;;;4955027;29;20432;-68
2023/04/27 11:59:56;;;;;;;2.97;2.77;;;18.90;63.90;;;;;;4955449;29;20379;-69
2023/04/27 12:02:22;;;;;;;3.90;2.80;;;18.90;64.30;;;;;;4955250;29;20539;-69
2023/04/27 12:04:51;;;;;;;3.23;2.93;;;18.70;63.90;;;;;;4937252;29;20436;-69
2023/04/27 12:07:17;;;;;;;2.80;2.60;;;18.60;64.30;;;;;;4954551;29;20467;-69
2023/04/27 12:09:44;;;;;;;2.57;2.37;;;18.50;65.80;;;;;;4954880;29;20440;-69
2023/04/27 12:12:17;;;;;;;2.17;1.97;;;18.50;63.70;;;;;;4953401;29;20831;-72
2023/04/27 12:14:44;;;;;;;2.60;2.40;;;18.60;66.50;;;;;;4954420;28;20444;-69
2023/04/27 12:17:09;;;;;;;4.23;3.00;;;18.80;67.90;;;;;;4955225;29;20440;-70
2023/04/27 12:19:36;;;;;;;2.63;2.07;;;19.10;69.60;;;;;;4954920;29;20981;-69
2023/04/27 12:22:02;;;;;;;3.07;2.43;;;19.40;67.10;;;;;;4954299;29;20200;-69
2023/04/27 12:24:28;;;;;;;2.67;2.47;;;19.60;65.10;;;;;;4954460;28;20399;-68
2023/04/27 12:26:53;;;;;;;5.17;3.60;;;19.70;67.00;;;;;;4954096;29;20448;-70
2023/04/27 12:29:19;;;;;;;6.70;2.73;;;19.60;63.70;;;;;;4954181;29;20192;-70
2023/04/27 12:31:45;;;;;;;2.83;2.63;;;19.50;63.60;;;;;;4954241;29;20648;-72
2023/04/27 12:34:10;;;;;;;2.30;2.10;;;19.50;65.80;;;;;;4954633;28;20196;-67
2023/04/27 12:36:36;;;;;;;4.30;3.10;;;19.50;66.80;;;;;;4954689;29;20180;-69
2023/04/27 12:39:19;;;;;;;2.47;2.27;;;19.50;65.40;;;;;;4954823;29;20631;-69
2023/04/27 12:41:46;;;;;;;1.97;1.87;;;19.50;65.70;;;;;;4955040;29;20531;-65
2023/04/27 12:44:12;;;;;;;4.10;2.23;;;19.50;65.00;;;;;;4953936;28;20455;-67
2023/04/27 12:46:42;;;;;;;4.13;3.63;;;19.50;63.70;;;;;;4954639;29;20424;-70
2023/04/27 12:49:08;;;;;;;3.67;2.93;;;19.50;62.60;;;;;;4954014;29;20499;-69
2023/04/27 12:51:35;;;;;;;3.70;2.60;;;19.30;61.60;;;;;;4954472;29;20416;-68
2023/04/27 12:54:02;;;;;;;2.43;2.30;;;19.10;62.70;;;;;;4954295;28;20462;-69
2023/04/27 12:56:28;;;;;;;2.43;2.23;;;19.00;63.00;;;;;;4953634;29;20412;-70
2023/04/27 12:58:54;;;;;;;3.20;2.60;;;19.00;64.10;;;;;;4953928;29;20775;-69
2023/04/27 13:01:23;;;;;;;2.67;1.80;;;19.10;64.90;;;;;;4953752;29;20299;-70
2023/04/27 13:03:51;;;;;;;3.00;2.80;;;19.20;63.50;;;;;;4953759;29;20404;-69
2023/04/27 13:06:17;;;;;;;3.70;2.90;;;19.10;64.10;;;;;;4953785;29;20428;-71
2023/04/27 13:08:42;;;;;;;2.30;2.10;;;19.10;65.40;;;;;;4954388;29;20420;-70
2023/04/27 13:11:08;;;;;;;3.00;2.80;;;19.10;63.90;;;;;;4954550;29;20631;-69
2023/04/27 13:13:34;;;;;;;2.67;2.47;;;19.10;63.50;;;;;;4954132;29;20189;-71
2023/04/27 13:16:00;;;;;;;2.60;2.40;;;19.00;64.60;;;;;;4954617;29;20249;-69
2023/04/27 13:18:26;;;;;;;5.20;2.63;;;19.00;64.70;;;;;;4954493;29;20693;-69
2023/04/27 13:20:52;;;;;;;2.83;2.47;;;19.10;64.70;;;;;;4954238;29;20271;-70
2023/04/27 13:23:17;;;;;;;3.07;2.87;;;19.10;64.00;;;;;;4954798;28;20192;-70
2023/04/27 13:25:43;;;;;;;2.77;2.57;;;19.20;64.20;;;;;;4957816;29;20196;-69
2023/04/27 13:28:09;;;;;;;3.07;2.80;;;19.20;63.60;;;;;;4957460;29;20181;-70
2023/04/27 13:30:34;;;;;;;5.33;3.93;;;19.30;62.90;;;;;;4957937;29;20246;-69
2023/04/27 13:33:00;;;;;;;2.37;2.20;;;19.30;64.20;;;;;;4957483;29;20227;-74
2023/04/27 13:35:26;;;;;;;3.17;2.33;;;19.20;64.70;;;;;;4957292;29;20274;-70
2023/04/27 13:37:52;;;;;;;3.17;2.13;;;19.20;64.20;;;;;;4957926;29;20496;-70
2023/04/27 13:40:20;;;;;;;2.60;2.40;;;19.30;64.60;;;;;;4957665;29;20483;-70
2023/04/27 13:42:46;;;;;;;2.93;2.73;;;19.40;63.10;;;;;;4957215;29;20417;-69
2023/04/27 13:45:11;;;;;;;2.47;2.30;;;19.30;62.40;;;;;;4957164;29;20432;-69
2023/04/27 13:47:39;;;;;;;2.20;2.00;;;19.20;63.20;;;;;;4957506;29;20176;-69
2023/04/27 13:50:11;;;;;;;4.87;2.30;;;19.20;63.60;;;;;;4957283;29;20228;-69
2023/04/27 13:52:37;;;;;;;3.00;2.77;;;19.10;64.30;;;;;;4957642;29;20736;-69
2023/04/27 13:55:04;;;;;;;3.30;3.03;;;19.10;63.60;;;;;;4957236;29;20752;-69
2023/04/27 13:57:30;;;;;;;2.70;2.50;;;19.10;63.50;;;;;;4957715;29;20406;-69
2023/04/27 13:59:55;;;;;;;2.27;2.13;;;19.10;63.80;;;;;;4957534;29;20415;-70
2023/04/27 14:02:22;;;;;;;2.93;2.63;;;19.10;64.90;;;;;;4956913;29;20690;-69
2023/04/27 14:04:48;;;;;;;2.17;1.97;;;19.20;66.70;;;;;;4937776;29;20205;-69
2023/04/27 14:07:14;;;;;;;2.00;1.80;;;19.20;64.90;;;;;;4949495;29;20528;-70
2023/04/27 14:09:40;;;;;;;1.90;1.80;;;19.30;63.70;;;;;;4957771;29;20165;-68
2023/04/27 14:12:07;;;;;;;2.83;1.87;;;19.30;63.80;;;;;;4957164;29;20432;-68
2023/04/27 14:14:34;;;;;;;4.80;2.60;;;19.40;64.40;;;;;;4956746;29;20296;-69
2023/04/27 14:17:00;;;;;;;3.27;2.80;;;19.40;66.10;;;;;;4957219;29;20428;-69
2023/04/27 14:19:26;;;;;;;2.60;2.40;;;19.40;65.90;;;;;;4957245;29;20404;-68
2023/04/27 14:21:52;;;;;;;1.90;1.80;;;19.40;66.20;;;;;;4956996;29;20563;-70
2023/04/27 14:24:18;;;;;;;2.10;2.00;;;19.30;64.70;;;;;;4956659;29;20420;-69
2023/04/27 14:26:46;;;;;;;2.60;2.40;;;19.30;65.30;;;;;;4956463;29;20420;-70
2023/04/27 14:29:12;;;;;;;2.70;1.80;;;19.20;66.20;;;;;;4957133;29;20405;-69
2023/04/27 14:31:38;;;;;;;1.87;1.77;;;19.10;69.30;;;;;;4956916;29;20507;-69
2023/04/27 14:34:04;;;;;;;2.57;1.87;;;19.10;67.70;;;;;;4956387;28;20424;-69
2023/04/27 14:36:31;;;;;;;2.57;2.27;;;19.10;66.10;;;;;;4956529;29;20835;-70
2023/04/27 14:38:56;;;;;;;2.80;2.00;;;19.10;66.60;;;;;;4939572;29;20911;-70
2023/04/27 14:41:22;;;;;;;2.17;2.07;;;19.10;65.10;;;;;;4956424;29;20444;-68
2023/04/27 14:43:48;;;;;;;2.50;2.30;;;19.10;67.00;;;;;;4956114;29;20236;-69
2023/04/27 14:46:15;;;;;;;2.00;1.90;;;19.10;69.30;;;;;;4956883;29;20170;-70
2023/04/27 14:48:41;;;;;;;2.50;2.20;;;19.10;69.40;;;;;;4956453;29;20524;-69
2023/04/27 14:51:06;;;;;;;2.07;1.40;;;19.10;71.80;;;;;;4956428;29;20421;-69
2023/04/27 14:53:32;;;;;;;2.00;1.73;;;19.10;70.00;;;;;;4955794;29;20279;-70
2023/04/27 14:55:57;;;;;;;1.90;1.80;;;19.10;69.30;;;;;;4956576;29;20219;-69
2023/04/27 14:58:23;;;;;;;1.87;1.77;;;19.10;68.80;;;;;;4955810;29;20271;-69
2023/04/27 15:00:49;;;;;;;2.17;1.97;;;19.00;68.20;;;;;;4956003;29;20197;-69
2023/04/27 15:03:15;;;;;;;2.60;2.33;;;18.80;67.60;;;;;;4956011;29;20413;-68
2023/04/27 15:05:41;;;;;;;2.00;1.90;;;18.80;67.90;;;;;;4938142;29;20456;-69
2023/04/27 15:08:07;;;;;;;3.37;2.70;;;18.60;69.40;;;;;;4952483;29;20915;-70
2023/04/27 15:10:33;;;;;;;3.13;2.40;;;18.60;68.80;;;;;;4956142;29;20417;-70
2023/04/27 15:13:00;;;;;;;2.23;2.10;;;18.70;69.00;;;;;;4955749;29;20200;-70
2023/04/27 15:15:26;;;;;;;2.70;2.50;;;18.70;68.60;;;;;;4955558;28;20268;-70
2023/04/27 15:17:52;;;;;;;2.50;2.23;;;18.70;69.00;;;;;;4955966;29;20951;-71
2023/04/27 15:20:18;;;;;;;2.87;2.57;;;18.70;69.00;;;;;;4955892;29;20177;-69
2023/04/27 15:22:43;;;;;;;2.60;2.40;;;18.60;68.30;;;;;;4938660;29;20200;-70
2023/04/27 15:25:10;;;;;;;3.03;2.83;;;18.50;68.60;;;;;;4954636;29;20499;-70
2023/04/27 15:27:36;;;;;;;1.80;1.70;;;18.60;68.90;;;;;;4954892;28;20201;-68
2023/04/27 15:30:04;;;;;;;2.70;2.17;;;18.60;70.30;;;;;;4956013;29;20446;-69
2023/04/27 15:32:30;;;;;;;3.17;2.77;;;18.60;68.10;;;;;;4943041;29;20418;-70
2023/04/27 15:34:56;;;;;;;2.80;2.57;;;18.60;67.60;;;;;;4936229;29;20440;-70
2023/04/27 15:37:23;;;;;;;4.40;2.07;;;18.60;68.50;;;;;;4953597;29;20185;-70
2023/04/27 15:39:49;;;;;;;2.63;2.23;;;18.60;69.20;;;;;;4955302;29;20403;-71
2023/04/27 15:42:14;;;;;;;2.70;2.07;;;18.50;68.50;;;;;;4956319;29;20858;-71
2023/04/27 15:44:40;;;;;;;2.63;2.50;;;18.50;69.60;;;;;;4955293;28;20196;-67
2023/04/27 15:47:06;;;;;;;2.27;2.07;;;18.40;70.50;;;;;;4955052;29;20180;-70
2023/04/27 15:49:31;;;;;;;3.23;2.27;;;18.40;69.20;;;;;;4955650;29;20173;-70
2023/04/27 15:51:57;;;;;;;1.93;1.83;;;18.30;68.70;;;;;;4955364;29;20259;-70
2023/04/27 15:54:22;;;;;;;2.83;2.53;;;18.20;68.00;;;;;;4954702;29;20236;-71
2023/04/27 15:56:48;;;;;;;2.27;2.10;;;18.10;69.00;;;;;;4955390;29;20188;-69
2023/04/27 15:59:14;;;;;;;2.27;1.97;;;18.00;69.10;;;;;;4955721;29;20275;-68
2023/04/27 16:01:39;;;;;;;3.17;2.77;;;17.90;69.00;;;;;;4955295;29;20564;-68
2023/04/27 16:04:05;;;;;;;2.27;1.93;;;17.90;69.00;;;;;;4954714;28;20268;-69
2023/04/27 16:06:33;;;;;;;2.57;1.90;;;17.80;69.20;;;;;;4953879;29;20267;-68
2023/04/27 16:08:59;;;;;;;5.33;2.13;;;17.70;70.60;;;;;;4955150;29;20188;-69
2023/04/27 16:11:25;;;;;;;2.00;1.90;;;17.70;70.90;;;;;;4955608;29;20394;-68
2023/04/27 16:13:50;;;;;;;2.80;2.07;;;17.60;71.20;;;;;;4937182;28;20768;-69
2023/04/27 16:16:16;;;;;;;2.37;2.20;;;17.60;71.10;;;;;;4954407;29;20219;-69
2023/04/27 16:18:42;;;;;;;3.13;2.33;;;17.60;70.80;;;;;;4954459;29;20184;-69
2023/04/27 16:21:07;;;;;;;4.20;2.00;;;17.60;70.80;;;;;;4955176;29;20196;-70
2023/04/27 16:23:33;;;;;;;7.23;2.80;;;17.60;71.70;;;;;;4954348;29;20184;-71
2023/04/27 16:25:58;;;;;;;3.33;2.53;;;17.60;72.70;;;;;;4955124;28;20690;-69
2023/04/27 16:28:24;;;;;;;2.70;2.47;;;17.70;71.40;;;;;;4955522;29;20165;-68
2023/04/27 16:30:51;;;;;;;2.40;2.30;;;17.70;71.20;;;;;;4955152;29;20638;-69
2023/04/27 16:33:18;;;;;;;2.43;2.00;;;17.70;71.60;;;;;;4954053;29;20202;-70
2023/04/27 16:35:43;;;;;;;2.50;2.30;;;17.70;71.00;;;;;;4954704;29;20443;-69
2023/04/27 16:38:09;;;;;;;3.60;1.93;;;17.70;71.30;;;;;;4955044;29;20438;-71
2023/04/27 16:40:34;;;;;;;2.53;2.27;;;17.70;70.80;;;;;;4954651;29;20192;-69
2023/04/27 16:43:00;;;;;;;2.50;2.30;;;17.60;70.50;;;;;;4955489;29;20242;-71
2023/04/27 16:45:26;;;;;;;2.70;1.73;;;17.60;70.90;;;;;;4954625;28;20726;-70
2023/04/27 16:47:51;;;;;;;2.40;1.70;;;17.60;71.20;;;;;;4954436;29;20184;-71
2023/04/27 16:50:17;;;;;;;1.90;1.57;;;17.60;71.70;;;;;;4955096;29;20609;-69